Time;durP1;ratioP1;P1;durP2;ratioP2;P2;SDS_P1;SDS_P2;PMS_P1;PMS_P2;Temp;Humidity;BMP_temperature;BMP_pressure;BME280_temperature;BME280_humidity;BME280_pressure;Samples;Min_cycle;Max_cycle;Signal;HPM_P1;HPM_P2
2021/12/31 00:01:32;;;;;;;19.02;5.88;;;;;;;;;;4969525;28;20043;-74
2021/12/31 00:03:58;;;;;;;29.52;6.25;;;;;;;;;;4971982;28;20055;-74
2021/12/31 00:06:23;;;;;;;25.92;5.97;;;;;;;;;;4970315;28;20465;-74
2021/12/31 00:08:49;;;;;;;30.80;6.30;;;;;;;;;;4969474;28;20050;-74
2021/12/31 00:11:16;;;;;;;26.15;6.72;;;;;;;;;;4969156;28;20557;-75
2021/12/31 00:13:42;;;;;;;27.35;6.30;;;;;;;;;;4967753;28;20121;-74
2021/12/31 00:16:08;;;;;;;20.25;6.35;;;;;;;;;;4968407;28;20200;-74
2021/12/31 00:18:34;;;;;;;22.85;5.88;;;;;;;;;;4975502;28;20089;-74
2021/12/31 00:21:00;;;;;;;25.60;5.88;;;;;;;;;;4963639;28;20090;-74
2021/12/31 00:23:27;;;;;;;25.30;5.47;;;;;;;;;;4969603;28;20059;-74
2021/12/31 00:25:54;;;;;;;22.92;5.72;;;;;;;;;;4968545;28;20054;-74
2021/12/31 00:28:20;;;;;;;28.88;6.72;;;;;;;;;;4970425;28;20057;-75
2021/12/31 00:30:51;;;;;;;25.00;6.32;;;;;;;;;;4966984;28;20137;-74
2021/12/31 00:33:17;;;;;;;19.02;5.10;;;;;;;;;;4967799;28;20137;-74
2021/12/31 00:35:44;;;;;;;21.67;5.97;;;;;;;;;;4965223;28;20054;-74
2021/12/31 00:38:10;;;;;;;21.85;5.72;;;;;;;;;;4973727;28;20046;-74
2021/12/31 00:40:36;;;;;;;30.40;6.88;;;;;;;;;;4969202;28;20058;-74
2021/12/31 00:43:03;;;;;;;20.50;5.60;;;;;;;;;;4972138;28;20438;-74
2021/12/31 00:45:30;;;;;;;25.48;6.18;;;;;;;;;;4976569;28;20043;-75
2021/12/31 00:47:56;;;;;;;28.52;5.93;;;;;;;;;;4970404;28;20121;-74
2021/12/31 00:50:23;;;;;;;22.75;5.25;;;;;;;;;;4969400;28;20047;-74
2021/12/31 00:52:49;;;;;;;23.83;5.82;;;;;;;;;;4970810;28;20819;-74
2021/12/31 00:55:15;;;;;;;24.98;6.18;;;;;;;;;;4968009;28;20054;-74
2021/12/31 00:57:42;;;;;;;26.00;6.50;;;;;;;;;;4966699;28;20065;-74
2021/12/31 01:00:09;;;;;;;22.67;5.88;;;;;;;;;;4970832;28;20039;-75
2021/12/31 01:02:35;;;;;;;21.33;5.72;;;;;;;;;;4967893;28;20047;-74
2021/12/31 01:05:02;;;;;;;27.63;5.97;;;;;;;;;;4969477;28;20051;-74
2021/12/31 01:07:28;;;;;;;22.88;6.57;;;;;;;;;;4969867;28;20518;-74
2021/12/31 01:09:55;;;;;;;25.52;6.30;;;;;;;;;;4967438;28;20082;-75
2021/12/31 01:12:23;;;;;;;27.77;6.55;;;;;;;;;;4968123;28;20059;-74
2021/12/31 01:15:11;;;;;;;27.40;6.30;;;;;;;;;;4972220;28;20475;-74
2021/12/31 01:18:02;;;;;;;25.95;5.65;;;;;;;;;;4968600;28;20178;-74
2021/12/31 01:20:28;;;;;;;29.00;7.20;;;;;;;;;;4962188;28;20054;-74
2021/12/31 01:22:54;;;;;;;27.17;6.10;;;;;;;;;;4970838;28;20067;-74
2021/12/31 01:25:20;;;;;;;18.40;5.63;;;;;;;;;;4968407;28;20778;-74
2021/12/31 01:27:46;;;;;;;22.95;6.03;;;;;;;;;;4970052;28;20125;-74
2021/12/31 01:30:13;;;;;;;23.50;6.85;;;;;;;;;;4968758;28;20057;-74
2021/12/31 01:32:40;;;;;;;22.60;5.40;;;;;;;;;;4968463;28;20043;-75
2021/12/31 01:35:07;;;;;;;23.52;5.82;;;;;;;;;;4968045;28;20085;-74
2021/12/31 01:37:33;;;;;;;25.00;6.93;;;;;;;;;;4971270;28;20038;-74
2021/12/31 01:39:59;;;;;;;22.27;6.15;;;;;;;;;;4970362;28;20054;-74
2021/12/31 01:42:32;;;;;;;22.13;6.65;;;;;;;;;;4968672;28;20133;-75
2021/12/31 01:45:02;;;;;;;30.23;6.18;;;;;;;;;;4968471;28;20047;-74
2021/12/31 01:47:45;;;;;;;22.60;6.05;;;;;;;;;;4969199;28;20096;-74
2021/12/31 01:50:12;;;;;;;26.17;6.85;;;;;;;;;;4967200;28;20058;-74
2021/12/31 01:52:40;;;;;;;20.02;5.60;;;;;;;;;;4968394;28;20050;-74
2021/12/31 01:55:10;;;;;;;20.73;5.45;;;;;;;;;;4980525;28;20125;-74
2021/12/31 01:57:36;;;;;;;21.35;5.10;;;;;;;;;;4968647;28;20109;-74
2021/12/31 02:00:02;;;;;;;20.33;5.32;;;;;;;;;;4968861;28;20055;-74
2021/12/31 02:02:28;;;;;;;22.60;6.00;;;;;;;;;;4967808;28;20043;-74
2021/12/31 02:04:55;;;;;;;23.27;6.07;;;;;;;;;;4969580;28;20047;-74
2021/12/31 02:07:21;;;;;;;17.55;5.10;;;;;;;;;;4966951;28;20043;-74
2021/12/31 02:09:50;;;;;;;18.42;5.40;;;;;;;;;;4968375;28;20160;-75
2021/12/31 02:12:19;;;;;;;26.73;7.10;;;;;;;;;;4965577;28;20501;-75
2021/12/31 02:14:45;;;;;;;23.70;5.80;;;;;;;;;;4965262;28;20051;-74
2021/12/31 02:17:11;;;;;;;23.55;5.10;;;;;;;;;;4968906;28;20426;-74
2021/12/31 02:19:38;;;;;;;24.85;5.75;;;;;;;;;;4970218;28;20479;-74
2021/12/31 02:22:04;;;;;;;24.25;5.72;;;;;;;;;;4966244;28;20561;-75
2021/12/31 02:24:31;;;;;;;24.63;6.30;;;;;;;;;;4972732;28;20047;-74
2021/12/31 02:26:58;;;;;;;18.40;6.15;;;;;;;;;;4968373;28;21803;-74
2021/12/31 02:29:25;;;;;;;23.92;5.78;;;;;;;;;;4969580;28;20498;-74
2021/12/31 02:31:52;;;;;;;28.23;6.40;;;;;;;;;;4971002;28;20114;-74
2021/12/31 02:34:19;;;;;;;25.77;6.05;;;;;;;;;;4969733;28;20125;-74
2021/12/31 02:36:45;;;;;;;22.75;6.68;;;;;;;;;;4967023;28;20395;-74
2021/12/31 02:39:11;;;;;;;23.23;5.70;;;;;;;;;;4968005;28;20054;-74
2021/12/31 02:41:37;;;;;;;23.42;6.32;;;;;;;;;;4968269;28;20043;-74
2021/12/31 02:44:03;;;;;;;23.80;5.90;;;;;;;;;;4968689;28;20051;-74
2021/12/31 02:46:29;;;;;;;25.65;5.88;;;;;;;;;;4968194;28;20430;-74
2021/12/31 02:48:57;;;;;;;19.70;5.53;;;;;;;;;;4966392;28;20402;-75
2021/12/31 02:51:23;;;;;;;22.73;6.00;;;;;;;;;;4966890;28;20043;-75
2021/12/31 02:53:52;;;;;;;18.95;5.55;;;;;;;;;;4968160;28;20044;-74
2021/12/31 02:56:18;;;;;;;21.60;6.22;;;;;;;;;;4967940;28;20398;-74
2021/12/31 02:58:44;;;;;;;19.40;6.13;;;;;;;;;;4961560;28;21088;-74
2021/12/31 03:01:12;;;;;;;24.58;6.05;;;;;;;;;;4963717;28;20059;-75
2021/12/31 03:03:38;;;;;;;19.58;5.63;;;;;;;;;;4966725;28;20313;-74
2021/12/31 03:06:04;;;;;;;28.25;5.97;;;;;;;;;;4965832;28;20047;-74
2021/12/31 03:08:32;;;;;;;19.70;5.97;;;;;;;;;;4968655;28;20050;-74
2021/12/31 03:10:59;;;;;;;19.40;6.00;;;;;;;;;;4967724;28;20495;-74
2021/12/31 03:13:25;;;;;;;22.90;6.18;;;;;;;;;;4970690;28;20390;-75
2021/12/31 03:15:51;;;;;;;22.73;5.60;;;;;;;;;;4970118;28;20094;-75
2021/12/31 03:18:19;;;;;;;24.98;6.30;;;;;;;;;;4969827;28;20464;-74
2021/12/31 03:20:57;;;;;;;27.55;6.30;;;;;;;;;;4969010;28;20058;-75
2021/12/31 03:23:28;;;;;;;17.48;5.32;;;;;;;;;;4973060;28;20149;-75
2021/12/31 03:25:54;;;;;;;26.10;6.30;;;;;;;;;;4968706;28;20059;-74
2021/12/31 03:28:20;;;;;;;21.85;5.65;;;;;;;;;;4971988;28;20053;-74
2021/12/31 03:30:47;;;;;;;21.55;5.47;;;;;;;;;;4971398;28;20090;-74
2021/12/31 03:33:13;;;;;;;25.27;6.03;;;;;;;;;;4973655;28;20050;-75
2021/12/31 03:35:39;;;;;;;17.73;4.90;;;;;;;;;;4969447;28;20061;-74
2021/12/31 03:38:05;;;;;;;22.23;5.35;;;;;;;;;;4987365;28;20487;-74
2021/12/31 03:40:31;;;;;;;19.13;5.35;;;;;;;;;;4969573;28;20042;-74
2021/12/31 03:42:57;;;;;;;23.20;5.30;;;;;;;;;;4973437;28;20043;-75
2021/12/31 03:45:24;;;;;;;21.98;5.68;;;;;;;;;;4965651;28;20046;-74
2021/12/31 03:47:49;;;;;;;27.13;5.57;;;;;;;;;;4972330;28;20047;-75
2021/12/31 03:50:15;;;;;;;22.55;5.65;;;;;;;;;;4973461;28;20521;-75
2021/12/31 03:52:42;;;;;;;17.92;4.78;;;;;;;;;;4971076;28;20038;-74
2021/12/31 03:55:09;;;;;;;19.70;5.50;;;;;;;;;;4970121;28;20047;-74
2021/12/31 03:57:36;;;;;;;23.50;5.88;;;;;;;;;;4972192;28;20495;-74
2021/12/31 04:00:04;;;;;;;21.55;5.35;;;;;;;;;;4970587;28;20059;-74
2021/12/31 04:02:30;;;;;;;21.08;5.95;;;;;;;;;;4971033;28;20074;-74
2021/12/31 04:04:56;;;;;;;20.60;5.03;;;;;;;;;;4969537;28;20082;-74
2021/12/31 04:07:22;;;;;;;20.42;6.15;;;;;;;;;;4968299;28;20051;-74
2021/12/31 04:09:48;;;;;;;26.67;5.53;;;;;;;;;;4970631;28;20142;-74
2021/12/31 04:12:14;;;;;;;20.15;5.72;;;;;;;;;;4971848;28;20137;-75
2021/12/31 04:14:40;;;;;;;19.38;5.50;;;;;;;;;;4968816;28;20134;-74
2021/12/31 04:17:06;;;;;;;17.70;6.32;;;;;;;;;;4969901;28;20042;-75
2021/12/31 04:19:32;;;;;;;22.23;5.72;;;;;;;;;;4967370;28;20047;-74
2021/12/31 04:21:58;;;;;;;15.77;5.60;;;;;;;;;;4970147;28;20067;-73
2021/12/31 04:24:52;;;;;;;21.15;5.75;;;;;;;;;;4971248;28;20046;-75
2021/12/31 04:27:13;;;;;;;22.42;5.68;;;;;;;;;;4971944;28;20154;-75
2021/12/31 04:29:39;;;;;;;19.73;5.38;;;;;;;;;;4969385;28;20047;-75
2021/12/31 04:32:06;;;;;;;17.63;5.15;;;;;;;;;;4970190;28;20056;-74
2021/12/31 04:34:32;;;;;;;22.00;4.75;;;;;;;;;;4968986;28;20380;-74
2021/12/31 04:36:58;;;;;;;15.50;5.20;;;;;;;;;;4970974;28;20047;-74
2021/12/31 04:39:24;;;;;;;17.05;5.10;;;;;;;;;;4970223;28;20090;-74
2021/12/31 04:41:50;;;;;;;16.63;5.00;;;;;;;;;;4968048;28;20042;-75
2021/12/31 04:44:16;;;;;;;18.10;5.28;;;;;;;;;;4966245;28;20391;-75
2021/12/31 04:46:42;;;;;;;14.48;4.60;;;;;;;;;;4970892;28;20042;-74
2021/12/31 04:49:09;;;;;;;21.35;5.88;;;;;;;;;;4969093;28;20047;-74
2021/12/31 04:51:35;;;;;;;18.15;5.13;;;;;;;;;;4969994;28;20046;-74
2021/12/31 04:54:01;;;;;;;18.23;4.47;;;;;;;;;;4973815;28;20125;-74
2021/12/31 04:56:27;;;;;;;16.05;5.15;;;;;;;;;;4969285;28;20668;-74
2021/12/31 04:58:53;;;;;;;13.20;5.05;;;;;;;;;;4971307;28;20061;-75
2021/12/31 05:01:21;;;;;;;15.77;5.05;;;;;;;;;;4968660;28;20050;-75
2021/12/31 05:03:51;;;;;;;16.50;5.88;;;;;;;;;;4969010;28;20047;-74
2021/12/31 05:06:17;;;;;;;16.20;4.55;;;;;;;;;;4966996;28;20042;-75
2021/12/31 05:08:43;;;;;;;16.98;4.05;;;;;;;;;;4971605;28;20428;-74
2021/12/31 05:11:09;;;;;;;13.18;4.53;;;;;;;;;;4967103;28;20141;-74
2021/12/31 05:13:35;;;;;;;14.75;4.47;;;;;;;;;;4984887;28;20043;-74
2021/12/31 05:16:02;;;;;;;14.63;5.05;;;;;;;;;;4968966;28;20074;-74
2021/12/31 05:18:28;;;;;;;15.32;4.43;;;;;;;;;;4969479;28;20507;-75
2021/12/31 05:20:54;;;;;;;18.85;5.70;;;;;;;;;;4971257;28;20097;-74
2021/12/31 05:23:20;;;;;;;14.35;4.30;;;;;;;;;;4969686;28;20054;-75
2021/12/31 05:25:46;;;;;;;12.15;3.75;;;;;;;;;;4967001;28;20046;-74
2021/12/31 05:28:12;;;;;;;13.02;4.05;;;;;;;;;;4969571;28;20043;-74
2021/12/31 05:30:39;;;;;;;11.30;3.95;;;;;;;;;;4965213;28;20077;-74
2021/12/31 05:33:04;;;;;;;13.48;4.57;;;;;;;;;;4968316;28;20078;-74
2021/12/31 05:35:30;;;;;;;15.07;4.10;;;;;;;;;;4965800;28;20530;-74
2021/12/31 05:37:57;;;;;;;16.27;4.80;;;;;;;;;;4965352;28;20042;-74
2021/12/31 05:40:23;;;;;;;10.35;4.15;;;;;;;;;;4969304;28;20442;-74
2021/12/31 05:42:49;;;;;;;11.25;4.80;;;;;;;;;;4967521;28;20353;-75
2021/12/31 05:45:15;;;;;;;14.93;5.32;;;;;;;;;;4966392;28;20058;-74
2021/12/31 05:47:41;;;;;;;16.30;4.25;;;;;;;;;;4970207;28;20059;-75
2021/12/31 05:50:18;;;;;;;15.07;4.55;;;;;;;;;;4968792;28;20065;-74
2021/12/31 05:52:44;;;;;;;16.00;4.97;;;;;;;;;;4968192;28;20047;-74
2021/12/31 05:55:10;;;;;;;16.98;5.10;;;;;;;;;;4966909;28;20050;-74
2021/12/31 05:57:36;;;;;;;16.55;5.55;;;;;;;;;;4967368;28;20066;-74
2021/12/31 06:00:02;;;;;;;9.43;4.00;;;;;;;;;;4968439;28;20043;-74
2021/12/31 06:02:28;;;;;;;14.52;4.63;;;;;;;;;;4969056;28;20046;-75
2021/12/31 06:04:54;;;;;;;11.68;4.85;;;;;;;;;;4966204;28;20085;-74
2021/12/31 06:07:20;;;;;;;20.23;5.28;;;;;;;;;;4967345;28;20047;-75
2021/12/31 06:09:46;;;;;;;15.73;4.78;;;;;;;;;;4968909;28;20057;-74
2021/12/31 06:12:13;;;;;;;16.40;4.43;;;;;;;;;;4969445;28;20054;-74
2021/12/31 06:14:39;;;;;;;12.13;3.97;;;;;;;;;;4965655;28;20047;-75
2021/12/31 06:17:07;;;;;;;13.45;4.82;;;;;;;;;;4968051;28;20054;-74
2021/12/31 06:19:34;;;;;;;13.48;4.20;;;;;;;;;;4969717;28;20046;-74
2021/12/31 06:22:00;;;;;;;12.63;4.57;;;;;;;;;;4970623;28;20043;-74
2021/12/31 06:24:26;;;;;;;14.45;4.28;;;;;;;;;;4970252;28;20047;-75
2021/12/31 06:26:52;;;;;;;11.02;4.30;;;;;;;;;;4966935;28;20038;-74
2021/12/31 06:29:18;;;;;;;12.70;4.68;;;;;;;;;;4972792;28;20038;-74
2021/12/31 06:31:44;;;;;;;13.38;4.53;;;;;;;;;;4966598;28;20078;-75
2021/12/31 06:34:10;;;;;;;16.63;4.63;;;;;;;;;;4964415;28;20042;-74
2021/12/31 06:36:36;;;;;;;15.00;4.30;;;;;;;;;;4967687;28;20053;-75
2021/12/31 06:39:03;;;;;;;14.52;4.85;;;;;;;;;;4964394;28;20047;-74
2021/12/31 06:41:29;;;;;;;14.48;4.40;;;;;;;;;;4970570;28;20089;-74
2021/12/31 06:43:56;;;;;;;12.57;4.20;;;;;;;;;;4968636;28;20169;-74
2021/12/31 06:46:22;;;;;;;13.75;4.53;;;;;;;;;;4970686;28;20055;-75
2021/12/31 06:48:48;;;;;;;12.75;4.57;;;;;;;;;;4970813;28;20050;-75
2021/12/31 06:51:14;;;;;;;11.98;5.05;;;;;;;;;;4972845;28;20102;-75
2021/12/31 06:53:40;;;;;;;15.93;5.45;;;;;;;;;;4971655;28;20050;-74
2021/12/31 06:56:06;;;;;;;16.70;4.85;;;;;;;;;;4968131;28;20053;-74
2021/12/31 06:58:32;;;;;;;12.05;4.45;;;;;;;;;;4970540;28;20521;-74
2021/12/31 07:00:58;;;;;;;14.85;4.63;;;;;;;;;;4968531;28;20462;-75
2021/12/31 07:03:24;;;;;;;11.18;4.95;;;;;;;;;;4969437;28;20403;-75
2021/12/31 07:05:50;;;;;;;16.52;4.63;;;;;;;;;;4967812;28;20502;-74
2021/12/31 07:08:16;;;;;;;18.23;4.80;;;;;;;;;;4967866;28;20050;-74
2021/12/31 07:10:42;;;;;;;16.90;4.97;;;;;;;;;;4967930;28;20655;-75
2021/12/31 07:13:11;;;;;;;12.73;4.13;;;;;;;;;;4971682;28;20050;-74
2021/12/31 07:15:47;;;;;;;13.27;4.93;;;;;;;;;;4971018;28;20061;-75
2021/12/31 07:18:13;;;;;;;12.57;4.43;;;;;;;;;;4967845;28;20043;-74
2021/12/31 07:20:39;;;;;;;15.57;5.20;;;;;;;;;;4970200;28;20476;-74
2021/12/31 07:23:09;;;;;;;13.45;4.10;;;;;;;;;;4976236;28;20047;-75
2021/12/31 07:25:35;;;;;;;14.52;5.63;;;;;;;;;;4971888;28;20153;-74
2021/12/31 07:28:02;;;;;;;17.45;4.95;;;;;;;;;;4972969;28;20046;-75
2021/12/31 07:30:28;;;;;;;12.68;4.50;;;;;;;;;;4970338;28;20051;-75
2021/12/31 07:32:55;;;;;;;15.57;4.80;;;;;;;;;;4973983;28;20042;-74
2021/12/31 07:35:21;;;;;;;18.50;4.60;;;;;;;;;;4971352;28;20409;-74
2021/12/31 07:37:47;;;;;;;17.58;4.68;;;;;;;;;;4969966;28;20483;-74
2021/12/31 07:40:13;;;;;;;17.27;4.60;;;;;;;;;;4970800;28;20081;-74
2021/12/31 07:42:39;;;;;;;19.50;5.82;;;;;;;;;;4971620;28;20043;-75
2021/12/31 07:45:06;;;;;;;12.00;4.60;;;;;;;;;;4971492;28;20505;-75
2021/12/31 07:47:32;;;;;;;15.38;4.95;;;;;;;;;;4968719;28;20042;-75
2021/12/31 07:49:58;;;;;;;15.25;4.75;;;;;;;;;;4971957;28;20081;-75
2021/12/31 07:52:24;;;;;;;13.95;4.60;;;;;;;;;;4972343;28;20055;-75
2021/12/31 07:54:50;;;;;;;13.27;5.00;;;;;;;;;;4971689;28;20414;-75
2021/12/31 07:57:17;;;;;;;11.50;4.20;;;;;;;;;;4973126;28;20128;-74
2021/12/31 07:59:43;;;;;;;8.18;4.07;;;;;;;;;;4970063;28;20058;-75
2021/12/31 08:02:09;;;;;;;16.42;5.80;;;;;;;;;;4973382;28;20578;-75
2021/12/31 08:04:35;;;;;;;15.18;4.68;;;;;;;;;;4972604;28;20130;-74
2021/12/31 08:07:01;;;;;;;15.98;5.40;;;;;;;;;;4971852;28;20494;-74
2021/12/31 08:09:27;;;;;;;18.40;5.45;;;;;;;;;;4969468;28;20054;-74
2021/12/31 08:11:53;;;;;;;15.13;5.15;;;;;;;;;;4974941;28;20042;-74
2021/12/31 08:14:19;;;;;;;14.38;5.20;;;;;;;;;;4971296;28;20042;-74
2021/12/31 08:16:45;;;;;;;13.07;5.22;;;;;;;;;;4977190;28;20043;-75
2021/12/31 08:19:11;;;;;;;11.63;4.55;;;;;;;;;;4972224;28;20059;-75
2021/12/31 08:21:37;;;;;;;18.38;5.20;;;;;;;;;;4971650;28;20042;-75
2021/12/31 08:24:03;;;;;;;15.45;5.53;;;;;;;;;;4970371;28;20493;-75
2021/12/31 08:26:29;;;;;;;14.95;4.75;;;;;;;;;;4974919;28;20122;-74
2021/12/31 08:28:57;;;;;;;13.00;4.72;;;;;;;;;;4972427;28;20169;-75
2021/12/31 08:31:23;;;;;;;18.60;5.00;;;;;;;;;;4972098;28;20038;-75
2021/12/31 08:33:49;;;;;;;21.65;5.32;;;;;;;;;;4971850;28;20410;-75
2021/12/31 08:36:15;;;;;;;20.10;5.70;;;;;;;;;;4972423;28;20054;-75
2021/12/31 08:38:42;;;;;;;17.25;5.40;;;;;;;;;;4972517;28;20074;-75
2021/12/31 08:41:08;;;;;;;17.48;5.35;;;;;;;;;;4970663;28;20050;-74
2021/12/31 08:43:34;;;;;;;18.58;5.40;;;;;;;;;;4970581;28;20046;-75
2021/12/31 08:46:00;;;;;;;14.40;5.03;;;;;;;;;;4971612;28;20049;-75
2021/12/31 08:48:26;;;;;;;19.50;5.38;;;;;;;;;;4971175;28;20101;-75
2021/12/31 08:50:52;;;;;;;15.95;5.05;;;;;;;;;;4970100;28;20129;-75
2021/12/31 08:53:18;;;;;;;16.70;5.43;;;;;;;;;;4972634;28;20406;-75
2021/12/31 08:55:44;;;;;;;14.93;4.85;;;;;;;;;;4970662;28;20109;-75
2021/12/31 08:58:10;;;;;;;26.35;9.70;;;;;;;;;;4975279;28;20046;-75
2021/12/31 09:00:36;;;;;;;19.05;5.95;;;;;;;;;;4970787;28;20047;-75
2021/12/31 09:03:02;;;;;;;20.73;5.18;;;;;;;;;;4965700;28;20101;-75
2021/12/31 09:05:30;;;;;;;16.42;5.30;;;;;;;;;;4964068;28;20046;-75
2021/12/31 09:07:56;;;;;;;20.58;6.47;;;;;;;;;;4972874;28;20517;-76
2021/12/31 09:10:22;;;;;;;16.60;5.35;;;;;;;;;;4968853;28;20046;-76
2021/12/31 09:12:50;;;;;;;14.52;4.78;;;;;;;;;;4967512;28;20066;-72
2021/12/31 09:15:16;;;;;;;16.92;5.05;;;;;;;;;;4969924;28;20047;-75
2021/12/31 09:17:42;;;;;;;21.65;6.22;;;;;;;;;;4966059;28;20046;-75
2021/12/31 09:20:08;;;;;;;20.88;7.22;;;;;;;;;;4970844;28;20198;-75
2021/12/31 09:22:34;;;;;;;21.50;5.70;;;;;;;;;;4973102;28;20386;-75
2021/12/31 09:25:00;;;;;;;18.77;6.20;;;;;;;;;;4969473;28;20038;-75
2021/12/31 09:27:27;;;;;;;19.35;5.80;;;;;;;;;;4971626;28;20041;-76
2021/12/31 09:29:53;;;;;;;19.80;5.43;;;;;;;;;;4971042;28;20038;-75
2021/12/31 09:32:21;;;;;;;25.00;6.28;;;;;;;;;;4966728;28;20049;-76
2021/12/31 09:34:48;;;;;;;26.73;6.10;;;;;;;;;;4972310;28;20047;-75
2021/12/31 09:37:14;;;;;;;23.42;5.60;;;;;;;;;;4969337;28;20078;-75
2021/12/31 09:39:40;;;;;;;20.88;5.95;;;;;;;;;;4964775;28;20043;-75
2021/12/31 09:42:07;;;;;;;14.73;5.75;;;;;;;;;;4962673;28;20043;-75
2021/12/31 09:44:33;;;;;;;19.13;6.35;;;;;;;;;;4972877;28;20451;-75
2021/12/31 09:47:00;;;;;;;21.48;5.45;;;;;;;;;;4973351;28;20058;-75
2021/12/31 09:49:26;;;;;;;21.05;6.38;;;;;;;;;;4970168;28;20050;-75
2021/12/31 09:51:52;;;;;;;14.88;4.80;;;;;;;;;;4968721;28;20101;-75
2021/12/31 09:54:22;;;;;;;22.13;5.95;;;;;;;;;;4966006;28;20590;-75
2021/12/31 09:56:48;;;;;;;23.98;6.07;;;;;;;;;;4964763;28;20189;-75
2021/12/31 09:59:14;;;;;;;25.90;6.38;;;;;;;;;;4964257;28;20410;-75
2021/12/31 10:01:46;;;;;;;25.70;6.15;;;;;;;;;;4966103;28;20096;-75
2021/12/31 10:04:12;;;;;;;29.10;5.47;;;;;;;;;;4962662;28;20047;-75
2021/12/31 10:06:38;;;;;;;21.67;5.50;;;;;;;;;;4962246;28;20380;-75
2021/12/31 10:09:04;;;;;;;18.77;5.93;;;;;;;;;;4964740;28;20395;-75
2021/12/31 10:11:30;;;;;;;19.25;5.55;;;;;;;;;;4964162;28;20113;-75
2021/12/31 10:13:58;;;;;;;18.13;4.95;;;;;;;;;;4962040;28;20043;-75
2021/12/31 10:16:25;;;;;;;24.08;6.90;;;;;;;;;;4962863;28;20070;-75
2021/12/31 10:19:05;;;;;;;22.63;5.78;;;;;;;;;;4964355;28;20200;-75
2021/12/31 10:21:35;;;;;;;19.48;5.85;;;;;;;;;;4968266;28;20284;-75
2021/12/31 10:24:17;;;;;;;16.20;5.75;;;;;;;;;;4971656;28;20046;-75
2021/12/31 10:26:43;;;;;;;17.08;5.82;;;;;;;;;;4970420;28;20505;-75
2021/12/31 10:29:10;;;;;;;16.30;5.75;;;;;;;;;;4971920;28;20062;-75
2021/12/31 10:31:42;;;;;;;23.25;6.45;;;;;;;;;;4968681;28;20503;-75
2021/12/31 10:34:08;;;;;;;24.45;6.22;;;;;;;;;;4969392;28;20098;-75
2021/12/31 10:36:35;;;;;;;23.15;5.75;;;;;;;;;;4969902;28;20043;-75
2021/12/31 10:39:03;;;;;;;25.25;6.05;;;;;;;;;;4969443;28;20070;-75
2021/12/31 10:41:30;;;;;;;29.67;6.53;;;;;;;;;;4970965;28;20045;-74
2021/12/31 10:43:58;;;;;;;24.48;7.47;;;;;;;;;;4970140;28;20043;-74
2021/12/31 10:46:24;;;;;;;39.25;7.70;;;;;;;;;;4972206;28;20054;-74
2021/12/31 10:48:51;;;;;;;37.50;7.75;;;;;;;;;;4967249;28;20644;-73
2021/12/31 10:51:35;;;;;;;36.08;7.57;;;;;;;;;;4969127;28;20093;-74
2021/12/31 10:54:28;;;;;;;37.30;7.25;;;;;;;;;;4967909;28;20380;-74
2021/12/31 10:56:55;;;;;;;37.83;7.80;;;;;;;;;;4971258;28;20055;-74
2021/12/31 10:59:21;;;;;;;31.25;7.32;;;;;;;;;;4968216;28;20063;-74
2021/12/31 11:01:48;;;;;;;29.00;7.45;;;;;;;;;;4972138;28;20059;-74
2021/12/31 11:04:14;;;;;;;29.30;6.30;;;;;;;;;;4969902;28;20510;-74
2021/12/31 11:06:45;;;;;;;25.77;7.25;;;;;;;;;;4968340;28;20058;-74
2021/12/31 11:09:13;;;;;;;28.80;6.22;;;;;;;;;;4966184;28;20046;-73
2021/12/31 11:11:41;;;;;;;30.25;7.25;;;;;;;;;;4976400;28;20562;-74
2021/12/31 11:14:09;;;;;;;30.85;7.45;;;;;;;;;;4975881;28;20078;-75
2021/12/31 11:16:38;;;;;;;30.50;6.90;;;;;;;;;;4972858;28;20049;-75
2021/12/31 11:19:04;;;;;;;32.08;7.18;;;;;;;;;;4974615;28;20066;-75
2021/12/31 11:21:31;;;;;;;35.35;8.80;;;;;;;;;;4975061;28;20086;-75
2021/12/31 11:24:17;;;;;;;21.92;6.20;;;;;;;;;;4967084;28;20514;-73
2021/12/31 11:26:43;;;;;;;31.50;7.10;;;;;;;;;;4977989;28;20039;-76
2021/12/31 11:29:18;;;;;;;33.17;7.10;;;;;;;;;;4979614;28;20467;-77
2021/12/31 11:31:44;;;;;;;30.77;7.70;;;;;;;;;;4965926;28;20034;-75
2021/12/31 11:34:12;;;;;;;24.52;6.97;;;;;;;;;;4963908;28;20145;-76
2021/12/31 11:36:38;;;;;;;40.47;8.50;;;;;;;;;;4965703;28;20051;-75
2021/12/31 11:39:15;;;;;;;27.85;6.75;;;;;;;;;;4966479;28;20045;-75
2021/12/31 11:41:42;;;;;;;37.63;9.15;;;;;;;;;;4965358;28;20050;-75
2021/12/31 11:44:09;;;;;;;40.63;8.57;;;;;;;;;;4967076;28;20055;-74
2021/12/31 11:46:36;;;;;;;33.20;8.10;;;;;;;;;;4967449;28;20126;-75
2021/12/31 11:49:04;;;;;;;34.50;7.10;;;;;;;;;;4968315;28;20053;-74
2021/12/31 11:51:35;;;;;;;34.28;7.70;;;;;;;;;;4963638;28;20049;-74
2021/12/31 11:54:01;;;;;;;36.40;8.25;;;;;;;;;;4967093;28;20109;-74
2021/12/31 11:56:50;;;;;;;32.60;7.85;;;;;;;;;;4972617;28;20167;-74
2021/12/31 11:59:16;;;;;;;30.45;6.90;;;;;;;;;;4970417;28;20047;-74
2021/12/31 12:01:47;;;;;;;28.52;8.07;;;;;;;;;;4968909;28;20039;-74
2021/12/31 12:04:19;;;;;;;30.55;6.95;;;;;;;;;;4965462;28;20146;-73
2021/12/31 12:07:05;;;;;;;26.13;7.70;;;;;;;;;;4962331;28;20081;-73
2021/12/31 12:09:37;;;;;;;23.73;6.30;;;;;;;;;;4962402;28;20149;-73
2021/12/31 12:12:03;;;;;;;25.98;6.40;;;;;;;;;;4962872;28;20038;-74
2021/12/31 12:14:30;;;;;;;28.00;7.10;;;;;;;;;;4970377;28;20051;-74
2021/12/31 12:16:59;;;;;;;30.80;6.75;;;;;;;;;;4966016;28;20534;-74
2021/12/31 12:19:44;;;;;;;25.27;7.47;;;;;;;;;;4966103;28;20487;-74
2021/12/31 12:22:24;;;;;;;23.08;7.30;;;;;;;;;;4964313;28;20073;-74
2021/12/31 12:24:51;;;;;;;26.60;6.50;;;;;;;;;;4946416;28;20113;-75
2021/12/31 12:27:17;;;;;;;25.27;6.82;;;;;;;;;;4961882;28;20074;-75
2021/12/31 12:29:44;;;;;;;26.92;7.28;;;;;;;;;;4963800;28;20371;-75
2021/12/31 12:32:11;;;;;;;18.67;6.20;;;;;;;;;;4962870;28;20047;-75
2021/12/31 12:34:37;;;;;;;30.48;6.72;;;;;;;;;;4963827;28;20126;-74
2021/12/31 12:37:04;;;;;;;27.02;6.78;;;;;;;;;;4965245;28;20137;-75
2021/12/31 12:39:33;;;;;;;38.85;7.75;;;;;;;;;;4962090;28;20142;-75
2021/12/31 12:42:00;;;;;;;31.23;7.13;;;;;;;;;;4965060;28;20108;-75
2021/12/31 12:44:25;;;;;;;29.55;9.65;;;;;;;;;;4966534;28;22003;-75
2021/12/31 12:46:58;;;;;;;38.58;9.25;;;;;;;;;;4963553;28;20082;-74
2021/12/31 12:49:26;;;;;;;29.13;6.68;;;;;;;;;;4962542;28;20051;-74
2021/12/31 12:51:54;;;;;;;31.55;8.00;;;;;;;;;;4963551;28;20116;-75
2021/12/31 12:54:21;;;;;;;37.00;8.93;;;;;;;;;;4964027;28;20149;-75
2021/12/31 12:56:51;;;;;;;34.25;8.57;;;;;;;;;;4964865;28;20423;-75
2021/12/31 12:59:22;;;;;;;42.67;8.95;;;;;;;;;;4962349;28;20193;-73
2021/12/31 13:01:49;;;;;;;37.15;8.73;;;;;;;;;;4967500;28;20058;-74
2021/12/31 13:04:16;;;;;;;35.63;8.10;;;;;;;;;;4968717;28;20113;-74
2021/12/31 13:06:44;;;;;;;41.17;10.80;;;;;;;;;;4970835;28;20570;-75
2021/12/31 13:09:15;;;;;;;46.20;9.07;;;;;;;;;;4962207;28;20507;-74
2021/12/31 13:11:44;;;;;;;47.00;10.10;;;;;;;;;;4968112;28;20073;-74
2021/12/31 13:14:14;;;;;;;41.75;9.07;;;;;;;;;;4965948;28;20067;-75
2021/12/31 13:16:41;;;;;;;37.67;8.65;;;;;;;;;;4967029;28;20058;-74
2021/12/31 13:19:09;;;;;;;35.63;8.25;;;;;;;;;;4965017;28;20138;-74
2021/12/31 13:21:35;;;;;;;31.45;7.60;;;;;;;;;;4960540;28;20105;-74
2021/12/31 13:24:02;;;;;;;32.03;7.43;;;;;;;;;;4964463;28;20057;-74
2021/12/31 13:26:33;;;;;;;31.50;7.43;;;;;;;;;;4965374;28;20163;-75
2021/12/31 13:29:00;;;;;;;30.15;6.88;;;;;;;;;;4964143;28;20078;-74
2021/12/31 13:31:39;;;;;;;30.15;7.72;;;;;;;;;;4966469;28;22155;-75
2021/12/31 13:34:17;;;;;;;26.20;7.85;;;;;;;;;;4964891;28;20129;-75
2021/12/31 13:36:47;;;;;;;31.15;8.07;;;;;;;;;;4963489;28;20050;-75
2021/12/31 13:39:18;;;;;;;26.00;7.18;;;;;;;;;;4962635;28;20050;-75
2021/12/31 13:41:44;;;;;;;33.88;7.38;;;;;;;;;;4965675;28;20070;-75
2021/12/31 13:44:12;;;;;;;35.53;7.78;;;;;;;;;;4966305;28;20062;-75
2021/12/31 13:46:40;;;;;;;25.90;7.00;;;;;;;;;;4966241;28;20070;-75
2021/12/31 13:49:12;;;;;;;32.60;7.93;;;;;;;;;;4964410;28;20070;-75
2021/12/31 13:51:39;;;;;;;45.50;8.25;;;;;;;;;;4962546;28;20114;-74
2021/12/31 13:54:06;;;;;;;28.23;7.68;;;;;;;;;;4966115;28;20092;-74
2021/12/31 13:56:46;;;;;;;32.63;7.60;;;;;;;;;;4961315;28;20055;-74
2021/12/31 13:59:31;;;;;;;30.40;8.07;;;;;;;;;;4964270;28;20892;-75
2021/12/31 14:02:17;;;;;;;27.95;7.07;;;;;;;;;;4964218;28;20190;-75
2021/12/31 14:04:58;;;;;;;22.30;6.53;;;;;;;;;;4966990;28;20443;-75
2021/12/31 14:07:32;;;;;;;28.02;8.00;;;;;;;;;;4964198;28;20057;-75
2021/12/31 14:09:58;;;;;;;29.15;7.65;;;;;;;;;;4963658;28;20057;-75
2021/12/31 14:12:25;;;;;;;22.80;6.68;;;;;;;;;;4961539;28;20595;-74
2021/12/31 14:14:51;;;;;;;27.10;8.43;;;;;;;;;;4960891;28;20206;-75
2021/12/31 14:17:17;;;;;;;36.45;8.02;;;;;;;;;;4964439;28;20156;-75
2021/12/31 14:19:43;;;;;;;32.60;7.07;;;;;;;;;;4968215;28;20490;-75
2021/12/31 14:22:09;;;;;;;31.75;7.97;;;;;;;;;;4964486;28;20108;-75
2021/12/31 14:24:36;;;;;;;25.40;7.68;;;;;;;;;;4962874;28;20043;-75
2021/12/31 14:27:06;;;;;;;27.92;8.80;;;;;;;;;;4969644;28;20135;-75
2021/12/31 14:29:33;;;;;;;23.50;7.07;;;;;;;;;;4969000;28;20046;-74
2021/12/31 14:32:03;;;;;;;21.60;7.10;;;;;;;;;;4971368;28;20043;-75
2021/12/31 14:34:30;;;;;;;26.77;7.50;;;;;;;;;;4968417;28;20043;-74